メインページ
METAR-TAF:

METAR-TAF

空港 :

オークランド, ニュージーランド

オークランド国際空港

緯度: 37-01S, 経度: 174-48E, 海抜: 7m

現時点の気象観測

当レポートは18分前の16:00(UTC)に作成
南東の風 3kt
気温 16°C
湿度 94%
気圧 1015 hPa
視程10km以上

METAR: NZAA 231600Z AUTO 13003KT 9999 NCD 16/15 Q1015 NOSIG

時間: 05:18 (16:18 UTC)

予報

当レポートは4時間54分前の11:24(UTC)に作成
予報は23日の 12時(UTC)から 24日の 12時(UTC)まで有効
の風 8kt
視程10km以上
高度3000ftの雲は散在している
23日の 22時(UTC)から 24日の 00時(UTC)まで徐々に
南西の風 10kt
24日の 07時(UTC)から 24日の 09時(UTC)まで徐々に
変向風 2kt

TAF: NZAA 231124Z 2312/2412 19008KT 9999 SCT030 BECMG 2322/2400 22010KT BECMG 2407/2409 VRB02KT

4,000以上の空港の気象観測と天気予報(METAR報とTAF報)

利用可能な観測所は地図上に黄色い丸と赤い丸で示す。

丸の上にカーソルを重ねると観測所名を参照できる。

次にクリックすると気象観測と天気予報を参照できる。

マップの切り替え:黒色「×」印の緑ボタンをクリックして拡大、「-」印の緑ボタンをクリックして縮小、緑色の三角印をクリックして隣りの地図に切り替え


METAR-TAF: